Time;durP1;ratioP1;P1;durP2;ratioP2;P2;SDS_P1;SDS_P2;PMS_P1;PMS_P2;Temp;Humidity;BMP_temperature;BMP_pressure;BME280_temperature;BME280_humidity;BME280_pressure;Samples;Min_cycle;Max_cycle;Signal;HPM_P1;HPM_P2
2021/10/03 00:01:19;;;;;;;22.30;9.90;;;;;;;9.73;71.54;100277.56;113408;1200;22608;-66
2021/10/03 00:03:47;;;;;;;;;;;;;;;9.70;71.50;100279.20;113338;1200;25722;-65
2021/10/03 00:06:17;;;;;;;26.80;9.30;;;;;;;9.65;71.69;100272.70;113176;1200;25117;-66
2021/10/03 00:08:46;;;;;;;24.20;9.00;;;;;;;9.61;71.73;100262.54;113796;1171;22475;-62
2021/10/03 00:11:15;;;;;;;23.30;9.00;;;;;;;9.58;71.94;100266.33;113014;1199;24267;-63
2021/10/03 00:13:43;;;;;;;25.20;9.40;;;;;;;9.57;71.83;100259.15;113151;1199;24086;-62
2021/10/03 00:16:11;;;;;;;22.90;10.40;;;;;;;9.55;72.09;100262.16;113374;1196;22439;-62
2021/10/03 00:18:39;;;;;;;22.40;9.70;;;;;;;9.54;71.94;100258.48;113263;1192;24018;-62
2021/10/03 00:21:10;;;;;;;25.10;10.20;;;;;;;9.54;72.28;100251.94;114968;1199;22997;-62
2021/10/03 00:23:38;;;;;;;24.20;9.00;;;;;;;9.54;72.11;100247.17;113413;1199;22554;-62
2021/10/03 00:26:06;;;;;;;21.70;9.40;;;;;;;9.53;72.25;100235.39;113152;1198;22479;-62
2021/10/03 00:28:35;;;;;;;27.80;9.20;;;;;;;9.52;72.40;100230.41;116764;1199;25366;-62
2021/10/03 00:31:03;;;;;;;18.90;8.00;;;;;;;9.50;72.43;100226.77;113087;1198;23197;-64
2021/10/03 00:33:31;;;;;;;22.10;8.30;;;;;;;9.49;72.46;100221.41;113169;1199;22439;-63
2021/10/03 00:36:00;;;;;;;20.40;8.40;;;;;;;9.49;72.53;100219.98;113170;1194;25023;-63
2021/10/03 00:38:28;;;;;;;23.60;9.10;;;;;;;9.48;72.55;100216.58;113158;1199;22535;-63
2021/10/03 00:40:58;;;;;;;24.90;9.20;;;;;;;9.47;72.65;100216.25;113482;1199;25080;-64
2021/10/03 00:43:29;;;;;;;21.70;8.80;;;;;;;9.45;72.67;100214.43;113399;1199;25094;-62
2021/10/03 00:45:58;;;;;;;23.90;8.90;;;;;;;9.42;72.66;100210.67;113342;1199;25075;-61
2021/10/03 00:48:26;;;;;;;22.20;8.40;;;;;;;9.39;72.79;100211.77;113265;1199;22439;-63
2021/10/03 00:50:54;;;;;;;21.30;8.20;;;;;;;9.39;72.79;100210.14;113281;1199;25157;-62
2021/10/03 00:53:23;;;;;;;21.30;8.70;;;;;;;9.37;72.84;100209.17;113437;1193;22458;-61
2021/10/03 00:55:51;;;;;;;20.50;7.50;;;;;;;9.36;72.92;100208.44;113302;1199;22434;-62
2021/10/03 00:58:19;;;;;;;18.50;8.00;;;;;;;9.35;73.02;100208.38;113313;1198;24057;-64
2021/10/03 01:00:49;;;;;;;21.10;8.20;;;;;;;9.35;72.98;100206.45;113372;1199;23223;-63
2021/10/03 01:03:18;;;;;;;18.70;8.60;;;;;;;9.35;73.13;100206.14;113252;1199;25120;-63
2021/10/03 01:05:47;;;;;;;22.00;7.80;;;;;;;9.34;73.16;100203.59;113384;1198;25189;-62
2021/10/03 01:08:15;;;;;;;21.50;7.70;;;;;;;9.33;73.16;100200.59;113047;1199;25583;-63
2021/10/03 01:10:43;;;;;;;20.00;7.60;;;;;;;9.32;73.32;100192.55;113002;1199;22449;-61
2021/10/03 01:13:12;;;;;;;22.20;8.40;;;;;;;9.30;73.33;100191.05;112868;1199;22524;-60
2021/10/03 01:15:42;;;;;;;20.10;8.10;;;;;;;9.29;73.38;100189.34;113173;1198;25079;-60
2021/10/03 01:18:12;;;;;;;19.90;7.90;;;;;;;9.29;73.36;100191.27;113100;1193;25162;-62
2021/10/03 01:20:42;;;;;;;21.50;8.00;;;;;;;9.27;73.57;100193.09;113232;1198;22504;-60
2021/10/03 01:23:11;;;;;;;20.10;7.70;;;;;;;9.27;73.61;100189.95;113082;1199;25074;-63
2021/10/03 01:25:45;;;;;;;22.00;7.20;;;;;;;9.25;73.54;100186.98;113400;1198;22416;-63
2021/10/03 01:28:15;;;;;;;20.90;8.50;;;;;;;9.23;73.73;100187.67;113193;1199;25257;-63
2021/10/03 01:30:45;;;;;;;16.40;7.20;;;;;;;9.22;73.60;100188.52;113533;1199;22758;-62
2021/10/03 01:33:14;;;;;;;20.80;8.10;;;;;;;9.21;73.84;100185.82;113420;1198;22436;-62
2021/10/03 01:35:42;;;;;;;22.00;8.30;;;;;;;9.20;73.67;100181.24;113346;1198;22453;-62
2021/10/03 01:38:14;;;;;;;19.90;6.80;;;;;;;9.19;73.72;100178.98;113368;1192;24028;-62
2021/10/03 01:40:44;;;;;;;20.30;9.40;;;;;;;9.17;73.74;100174.58;113428;1199;22422;-63
2021/10/03 01:43:13;;;;;;;18.20;7.10;;;;;;;9.15;73.87;100173.14;113449;1199;25523;-62
2021/10/03 01:45:41;;;;;;;16.50;7.10;;;;;;;9.14;73.90;100170.01;113419;1198;23788;-62
2021/10/03 01:48:14;;;;;;;19.10;7.70;;;;;;;9.14;73.88;100172.64;113431;1198;25219;-62
2021/10/03 01:50:46;;;;;;;14.90;7.00;;;;;;;9.14;73.99;100170.10;113434;1184;24206;-61
2021/10/03 01:53:17;;;;;;;18.10;7.70;;;;;;;9.13;73.98;100169.32;113335;1199;22421;-63
2021/10/03 01:55:45;;;;;;;18.90;7.50;;;;;;;9.13;74.12;100170.62;113562;1177;24102;-62
2021/10/03 01:58:17;;;;;;;18.40;6.90;;;;;;;9.12;74.18;100172.98;113283;1193;25143;-63
2021/10/03 02:00:47;;;;;;;17.40;6.70;;;;;;;9.11;74.27;100171.50;113584;1192;22441;-62
2021/10/03 02:03:15;;;;;;;16.90;6.70;;;;;;;9.09;74.25;100167.95;113380;1199;24580;-62
2021/10/03 02:05:46;;;;;;;17.70;7.00;;;;;;;9.08;74.30;100163.17;113357;1199;22442;-62
2021/10/03 02:08:16;;;;;;;18.10;6.90;;;;;;;9.07;74.39;100158.24;113570;1193;22451;-63
2021/10/03 02:10:48;;;;;;;18.00;6.70;;;;;;;9.08;74.49;100157.01;113350;1193;25151;-62
2021/10/03 02:13:18;;;;;;;24.30;7.60;;;;;;;9.08;74.38;100161.46;113537;1194;22446;-63
2021/10/03 02:15:48;;;;;;;16.20;7.00;;;;;;;9.07;74.45;100156.98;113480;1199;24124;-62
2021/10/03 02:18:20;;;;;;;18.80;7.90;;;;;;;9.06;74.50;100153.52;113287;1199;25074;-62
2021/10/03 02:20:53;;;;;;;16.20;6.70;;;;;;;9.07;74.57;100156.76;113418;1198;22461;-63
2021/10/03 02:23:21;;;;;;;16.50;6.00;;;;;;;9.07;74.57;100154.99;113425;1192;22420;-63
2021/10/03 02:25:50;;;;;;;16.30;7.00;;;;;;;9.07;74.69;100158.13;113429;1198;22442;-62
2021/10/03 02:28:20;;;;;;;16.00;6.30;;;;;;;9.06;74.59;100161.73;113478;1193;24058;-61
2021/10/03 02:30:52;;;;;;;17.80;6.70;;;;;;;9.05;74.64;100160.56;113487;1184;24130;-62
2021/10/03 02:33:23;;;;;;;17.70;6.40;;;;;;;9.04;74.68;100168.35;113467;1198;24097;-63
2021/10/03 02:35:52;;;;;;;17.80;6.30;;;;;;;9.03;74.68;100169.92;113510;1198;23859;-62
2021/10/03 02:38:23;;;;;;;13.90;5.80;;;;;;;9.01;74.80;100172.57;113679;1199;24017;-62
2021/10/03 02:40:54;;;;;;;15.20;5.40;;;;;;;8.98;74.70;100171.55;113468;1193;22528;-61
2021/10/03 02:43:23;;;;;;;16.50;5.90;;;;;;;8.97;74.93;100171.37;113475;1193;22433;-62
2021/10/03 02:45:53;;;;;;;15.80;6.30;;;;;;;8.98;74.86;100167.53;113815;1198;22896;-62
2021/10/03 02:48:23;;;;;;;17.60;5.90;;;;;;;8.98;74.86;100162.77;113403;1198;22456;-62
2021/10/03 02:50:52;;;;;;;;;;;;;;;8.98;74.92;100162.22;113371;1199;25106;-63
2021/10/03 02:53:21;;;;;;;15.60;6.00;;;;;;;8.97;74.90;100157.55;113405;1197;22546;-63
2021/10/03 02:55:50;;;;;;;13.50;5.30;;;;;;;8.97;74.86;100151.82;113514;1197;22414;-62
2021/10/03 02:58:20;;;;;;;17.80;6.10;;;;;;;8.96;74.81;100146.34;113298;1199;22562;-64
2021/10/03 03:00:51;;;;;;;14.50;5.60;;;;;;;8.95;74.87;100144.55;113477;1199;22458;-62
2021/10/03 03:03:19;;;;;;;15.60;5.80;;;;;;;8.95;74.94;100147.63;114287;1199;22504;-63
2021/10/03 03:05:48;;;;;;;15.80;5.40;;;;;;;8.94;74.94;100147.72;114467;1198;26298;-61
2021/10/03 03:08:17;;;;;;;19.50;5.60;;;;;;;8.94;75.05;100146.20;113291;1193;23256;-62
2021/10/03 03:10:45;;;;;;;15.80;5.80;;;;;;;8.94;75.10;100144.87;113442;1198;22443;-62
2021/10/03 03:13:13;;;;;;;13.50;5.40;;;;;;;8.93;75.13;100148.39;113492;1199;22551;-62
2021/10/03 03:15:41;;;;;;;16.50;5.50;;;;;;;8.92;75.18;100151.46;113508;1199;22663;-62
2021/10/03 03:18:11;;;;;;;21.90;5.80;;;;;;;8.91;75.11;100146.84;113495;1198;24576;-62
2021/10/03 03:20:40;;;;;;;19.20;5.50;;;;;;;8.91;75.17;100142.08;113424;1199;22646;-62
2021/10/03 03:23:08;;;;;;;16.60;5.70;;;;;;;8.90;75.20;100142.02;113587;1198;25815;-62
2021/10/03 03:25:36;;;;;;;17.10;5.60;;;;;;;8.89;75.31;100142.33;113626;1198;25065;-63
2021/10/03 03:28:07;;;;;;;17.30;4.90;;;;;;;8.87;75.19;100142.27;113619;1199;22481;-63
2021/10/03 03:30:36;;;;;;;16.20;5.40;;;;;;;8.85;75.26;100143.14;113461;1187;25574;-63
2021/10/03 03:33:04;;;;;;;17.50;6.10;;;;;;;8.84;75.19;100141.55;113407;1199;24133;-62
2021/10/03 03:35:33;;;;;;;19.60;6.10;;;;;;;8.83;75.42;100146.26;113398;1198;22455;-63
2021/10/03 03:38:01;;;;;;;16.60;5.20;;;;;;;8.83;75.29;100148.02;113609;1192;25225;-62
2021/10/03 03:40:30;;;;;;;18.00;6.20;;;;;;;8.83;75.52;100149.38;113512;1199;22700;-62
2021/10/03 03:43:00;;;;;;;16.90;5.60;;;;;;;8.84;75.47;100147.67;113655;1199;22439;-62
2021/10/03 03:45:29;;;;;;;16.30;5.70;;;;;;;8.84;75.51;100150.30;113673;1194;22432;-62
2021/10/03 03:47:59;;;;;;;19.30;5.60;;;;;;;8.84;75.46;100143.98;113397;1198;24111;-62
2021/10/03 03:50:27;;;;;;;23.10;5.70;;;;;;;8.85;75.60;100139.44;113436;1197;22415;-62
2021/10/03 03:52:56;;;;;;;15.10;4.80;;;;;;;8.84;75.51;100134.66;113435;1199;22419;-62
2021/10/03 03:55:25;;;;;;;17.00;5.90;;;;;;;8.85;75.71;100130.34;113541;1199;25319;-63
2021/10/03 03:57:53;;;;;;;15.80;6.10;;;;;;;8.86;75.63;100135.47;113627;1199;25238;-63
2021/10/03 04:00:22;;;;;;;14.30;5.10;;;;;;;8.86;75.69;100129.25;113432;1198;22450;-63
2021/10/03 04:02:50;;;;;;;13.30;4.40;;;;;;;8.86;75.72;100134.20;113574;1199;24318;-62
2021/10/03 04:05:18;;;;;;;15.40;5.60;;;;;;;8.86;75.71;100135.72;113462;1199;22449;-64
2021/10/03 04:07:46;;;;;;;15.30;5.60;;;;;;;8.87;75.71;100135.09;113409;1199;22433;-61
2021/10/03 04:10:16;;;;;;;14.00;5.60;;;;;;;8.88;75.73;100134.41;113462;1198;24153;-64
2021/10/03 04:12:44;;;;;;;15.60;5.50;;;;;;;8.88;75.69;100128.69;113615;1198;22985;-62
2021/10/03 04:15:12;;;;;;;16.60;5.50;;;;;;;8.89;75.85;100121.63;113508;1199;25222;-61
2021/10/03 04:17:42;;;;;;;17.70;6.20;;;;;;;8.90;75.89;100124.23;113853;1199;22563;-62
2021/10/03 04:20:11;;;;;;;17.10;5.50;;;;;;;8.90;75.78;100121.75;113437;1198;22485;-62
2021/10/03 04:22:39;;;;;;;14.00;5.70;;;;;;;8.90;75.82;100125.64;113857;1199;24573;-62
2021/10/03 04:25:10;;;;;;;20.30;7.10;;;;;;;8.90;75.77;100122.70;113476;1199;22467;-63
2021/10/03 04:27:38;;;;;;;17.30;5.70;;;;;;;8.89;75.82;100122.34;113495;1199;22425;-62
2021/10/03 04:30:09;;;;;;;15.10;5.60;;;;;;;8.89;75.91;100131.50;113534;1198;25130;-62
2021/10/03 04:32:37;;;;;;;16.60;5.30;;;;;;;8.89;75.73;100132.20;113552;1192;22419;-61
2021/10/03 04:35:07;;;;;;;14.10;5.10;;;;;;;8.88;75.71;100125.75;113497;1199;22825;-62
2021/10/03 04:37:36;;;;;;;16.70;5.80;;;;;;;8.87;75.80;100122.80;113642;1199;22456;-63
2021/10/03 04:40:07;;;;;;;15.50;5.30;;;;;;;8.86;75.85;100119.02;113540;1198;22443;-64
2021/10/03 04:42:35;;;;;;;14.90;5.90;;;;;;;8.85;75.89;100119.14;113535;1194;24106;-63
2021/10/03 04:45:05;;;;;;;17.10;6.50;;;;;;;8.84;75.81;100122.66;113532;1199;22426;-62
2021/10/03 04:47:33;;;;;;;21.20;5.80;;;;;;;8.84;75.74;100126.76;113555;1198;22607;-61
2021/10/03 04:50:01;;;;;;;20.00;6.50;;;;;;;8.82;75.94;100127.63;113487;1198;25224;-63
2021/10/03 04:52:29;;;;;;;14.50;5.50;;;;;;;8.81;75.89;100125.48;113430;1199;22414;-62
2021/10/03 04:54:57;;;;;;;17.30;5.80;;;;;;;8.81;75.90;100121.89;113537;1199;22454;-61
2021/10/03 04:57:26;;;;;;;19.20;6.40;;;;;;;8.80;76.11;100124.38;113499;1199;22384;-62
2021/10/03 04:59:54;;;;;;;18.40;5.50;;;;;;;8.80;76.14;100120.64;113404;1192;22415;-62
2021/10/03 05:02:21;;;;;;;12.90;4.90;;;;;;;8.81;76.08;100117.42;113347;1199;22586;-62
2021/10/03 05:04:50;;;;;;;12.30;4.80;;;;;;;8.81;76.23;100118.65;113557;1197;25054;-63
2021/10/03 05:07:18;;;;;;;16.90;5.60;;;;;;;8.82;76.16;100115.35;113562;1198;23887;-62
2021/10/03 05:09:46;;;;;;;16.30;5.80;;;;;;;8.83;76.26;100117.59;113626;1198;22428;-63
2021/10/03 05:12:14;;;;;;;16.50;6.10;;;;;;;8.82;76.29;100113.86;113466;1192;25013;-64
2021/10/03 05:14:45;;;;;;;15.80;5.80;;;;;;;8.81;76.49;100117.23;113483;1199;22887;-63
2021/10/03 05:17:14;;;;;;;18.20;5.30;;;;;;;8.82;76.58;100115.23;113374;1199;24169;-63
2021/10/03 05:19:42;;;;;;;19.30;5.50;;;;;;;8.83;76.63;100114.60;113476;1199;22458;-62
2021/10/03 05:22:10;;;;;;;24.20;6.70;;;;;;;8.85;76.50;100117.78;113390;1199;25180;-63
2021/10/03 05:24:38;;;;;;;15.80;6.30;;;;;;;8.87;76.67;100117.06;113492;1199;22417;-63
2021/10/03 05:27:06;;;;;;;16.40;6.20;;;;;;;8.90;76.62;100115.16;113522;1193;25027;-63
2021/10/03 05:29:34;;;;;;;19.50;7.30;;;;;;;8.93;76.60;100116.61;113362;1194;26450;-63
2021/10/03 05:32:03;;;;;;;22.10;7.10;;;;;;;8.96;76.66;100116.05;113063;1199;25065;-62
2021/10/03 05:34:33;;;;;;;20.20;7.50;;;;;;;9.00;76.77;100121.21;113402;1199;25599;-62
2021/10/03 05:37:01;;;;;;;18.70;6.60;;;;;;;9.03;76.81;100120.59;113495;1198;22452;-63
2021/10/03 05:39:29;;;;;;;22.60;6.60;;;;;;;9.07;76.90;100113.01;113374;1193;25014;-62
2021/10/03 05:41:57;;;;;;;23.40;6.20;;;;;;;9.10;76.91;100114.11;113232;1198;22500;-63
2021/10/03 05:44:26;;;;;;;16.00;6.50;;;;;;;9.15;76.95;100111.73;113287;1199;23218;-63
2021/10/03 05:46:54;;;;;;;22.00;6.90;;;;;;;9.19;76.83;100108.23;113249;1199;26303;-63
2021/10/03 05:49:23;;;;;;;20.30;6.40;;;;;;;9.24;76.97;100104.19;113228;1199;22459;-63
2021/10/03 05:51:52;;;;;;;15.90;6.40;;;;;;;9.30;77.11;100105.70;113510;1199;23183;-61
2021/10/03 05:54:21;;;;;;;21.00;6.80;;;;;;;9.36;76.95;100103.89;113732;1199;22433;-60
2021/10/03 05:56:51;;;;;;;18.10;6.00;;;;;;;9.42;77.03;100109.55;113844;1198;23277;-63
2021/10/03 05:59:20;;;;;;;18.90;7.10;;;;;;;9.50;77.05;100105.48;113586;1192;22418;-62
2021/10/03 06:01:51;;;;;;;17.50;7.00;;;;;;;9.59;77.09;100108.23;113850;1198;22493;-61
2021/10/03 06:04:22;;;;;;;15.70;5.90;;;;;;;9.68;77.02;100105.78;114066;1198;25071;-62
2021/10/03 06:06:52;;;;;;;17.70;6.90;;;;;;;9.77;76.94;100108.15;113726;1192;22492;-61
2021/10/03 06:09:21;;;;;;;;;;;;;;;9.88;76.98;100104.91;114213;1197;22484;-62
2021/10/03 06:11:50;;;;;;;16.60;4.90;;;;;;;9.96;76.85;100107.05;114255;1196;25113;-63
2021/10/03 06:14:19;;;;;;;16.80;6.50;;;;;;;10.05;76.59;100108.73;113580;1198;22442;-66
2021/10/03 06:16:49;;;;;;;19.30;7.00;;;;;;;10.11;76.64;100109.33;113436;1198;23791;-64
2021/10/03 06:19:18;;;;;;;19.30;6.60;;;;;;;10.18;76.48;100105.51;113656;1192;22482;-63
2021/10/03 06:21:48;;;;;;;20.40;6.70;;;;;;;10.25;76.35;100100.97;114040;1199;22882;-63
2021/10/03 06:24:18;;;;;;;17.50;6.50;;;;;;;10.33;76.28;100103.64;113855;1193;24836;-72
2021/10/03 06:26:48;;;;;;;14.60;5.50;;;;;;;10.41;76.25;100104.45;114168;1193;23267;-71
2021/10/03 06:29:18;;;;;;;18.20;6.50;;;;;;;10.50;76.06;100100.39;113805;1194;25809;-68
2021/10/03 06:31:48;;;;;;;20.00;6.80;;;;;;;10.58;76.13;100098.45;114232;1193;23988;-69
2021/10/03 06:34:17;;;;;;;17.10;6.50;;;;;;;10.66;75.91;100099.99;113813;1198;24398;-68
2021/10/03 06:36:47;;;;;;;17.90;6.80;;;;;;;10.75;75.76;100102.63;113313;1199;22426;-68
2021/10/03 06:39:17;;;;;;;16.50;5.40;;;;;;;10.83;75.63;100104.84;114051;1197;22557;-63
2021/10/03 06:41:47;;;;;;;14.20;5.40;;;;;;;10.91;75.41;100106.80;113572;1192;26276;-66
2021/10/03 06:44:16;;;;;;;15.60;5.10;;;;;;;10.96;75.39;100107.14;113758;1193;22748;-62
2021/10/03 06:46:45;;;;;;;16.30;5.10;;;;;;;11.00;75.24;100100.73;113664;1193;23982;-63
2021/10/03 06:49:14;;;;;;;16.00;4.70;;;;;;;11.03;75.09;100101.18;113419;1193;22437;-63
2021/10/03 06:51:44;;;;;;;16.50;5.60;;;;;;;11.07;75.00;100102.02;113360;1199;26377;-60
2021/10/03 06:54:12;;;;;;;18.80;6.70;;;;;;;11.10;74.92;100100.04;114061;1198;22518;-62
2021/10/03 06:56:41;;;;;;;18.90;6.60;;;;;;;11.15;74.76;100101.20;113027;1193;24172;-61
2021/10/03 06:59:09;;;;;;;17.60;5.80;;;;;;;11.20;74.72;100100.36;112844;1192;22446;-61
2021/10/03 07:01:37;;;;;;;14.90;6.10;;;;;;;11.25;74.72;100100.39;112961;1199;22563;-61
2021/10/03 07:04:06;;;;;;;18.40;5.90;;;;;;;11.30;74.77;100095.27;112870;1199;22426;-62
2021/10/03 07:06:34;;;;;;;18.20;5.40;;;;;;;11.36;74.45;100093.34;115110;1198;25032;-61
2021/10/03 07:09:02;;;;;;;17.10;5.30;;;;;;;11.44;74.22;100091.05;112703;1192;24053;-62
2021/10/03 07:11:30;;;;;;;18.80;6.00;;;;;;;11.51;74.26;100092.66;112941;1193;25178;-60
2021/10/03 07:13:59;;;;;;;17.10;5.10;;;;;;;11.58;74.35;100085.12;112958;1199;25277;-61
2021/10/03 07:16:28;;;;;;;18.40;5.40;;;;;;;11.67;74.15;100082.44;112923;1199;25188;-61
2021/10/03 07:18:56;;;;;;;15.70;4.90;;;;;;;11.76;73.93;100074.70;112839;1199;22739;-59
2021/10/03 07:21:24;;;;;;;14.40;5.00;;;;;;;11.86;73.82;100078.65;112945;1198;22449;-60
2021/10/03 07:23:53;;;;;;;14.40;5.20;;;;;;;11.94;73.71;100079.73;112981;1193;25186;-59
2021/10/03 07:26:21;;;;;;;14.60;4.40;;;;;;;12.05;73.59;100077.30;112830;1192;22457;-59
2021/10/03 07:28:49;;;;;;;14.20;5.30;;;;;;;12.17;73.34;100077.77;112892;1192;24185;-59
2021/10/03 07:31:19;;;;;;;15.20;4.50;;;;;;;12.27;73.41;100081.63;112927;1199;22565;-60
2021/10/03 07:33:48;;;;;;;12.10;4.80;;;;;;;12.34;73.13;100079.16;113015;1198;24091;-59
2021/10/03 07:36:19;;;;;;;20.70;5.10;;;;;;;12.44;73.12;100078.01;112977;1199;22436;-59
2021/10/03 07:38:47;;;;;;;15.10;4.30;;;;;;;12.52;73.07;100078.83;112792;1198;22444;-59
2021/10/03 07:41:15;;;;;;;17.00;4.70;;;;;;;12.63;72.97;100079.77;112855;1199;24091;-58
2021/10/03 07:43:46;;;;;;;14.50;4.80;;;;;;;12.70;72.81;100082.37;112728;1193;22443;-59
2021/10/03 07:46:17;;;;;;;15.70;5.60;;;;;;;12.79;72.77;100087.73;112745;1199;25547;-61
2021/10/03 07:48:47;;;;;;;11.20;4.10;;;;;;;12.88;72.53;100090.15;112733;1198;22481;-59
2021/10/03 07:51:15;;;;;;;16.50;4.50;;;;;;;12.96;72.47;100091.83;112802;1199;25223;-59
2021/10/03 07:53:43;;;;;;;15.70;4.80;;;;;;;13.02;72.09;100092.09;112740;1199;22669;-59
2021/10/03 07:56:12;;;;;;;14.40;3.80;;;;;;;13.08;72.05;100090.21;112810;1192;22443;-59
2021/10/03 07:58:40;;;;;;;15.40;4.60;;;;;;;13.19;71.78;100084.42;112719;1199;26638;-60
2021/10/03 08:01:08;;;;;;;17.00;5.80;;;;;;;13.26;71.52;100081.91;112900;1193;24134;-59
2021/10/03 08:03:37;;;;;;;13.50;4.20;;;;;;;13.29;71.51;100078.46;112872;1199;23594;-61
2021/10/03 08:06:05;;;;;;;10.70;3.50;;;;;;;13.35;71.44;100076.50;113002;1192;25135;-59
2021/10/03 08:08:34;;;;;;;15.50;4.60;;;;;;;13.45;71.54;100071.96;112832;1199;24508;-59
2021/10/03 08:11:02;;;;;;;15.10;3.90;;;;;;;13.54;71.12;100071.54;112834;1199;22476;-59
2021/10/03 08:13:31;;;;;;;11.40;3.80;;;;;;;13.61;70.80;100073.40;112962;1192;24208;-59
2021/10/03 08:15:59;;;;;;;14.90;4.60;;;;;;;13.73;70.66;100072.84;112832;1198;22425;-60
2021/10/03 08:18:27;;;;;;;15.10;4.70;;;;;;;13.85;70.42;100070.84;112555;1198;22584;-60
2021/10/03 08:20:55;;;;;;;17.20;4.30;;;;;;;13.93;70.22;100069.23;112806;1199;22603;-59
2021/10/03 08:23:33;;;;;;;;;;;;;;;;;;;;;
2021/10/03 08:26:02;;;;;;;14.30;4.60;;;;;;;14.08;70.04;100062.12;113018;1198;24087;-58
2021/10/03 08:28:31;;;;;;;14.40;3.70;;;;;;;14.17;69.80;100062.65;113008;1198;23139;-59
2021/10/03 08:30:59;;;;;;;14.80;3.90;;;;;;;14.27;69.55;100058.38;112878;1192;24155;-62
2021/10/03 08:33:27;;;;;;;16.00;4.10;;;;;;;14.39;69.26;100060.00;112783;1199;22581;-57
2021/10/03 08:35:56;;;;;;;17.00;4.70;;;;;;;14.48;68.99;100051.77;112527;1199;25129;-59
2021/10/03 08:38:24;;;;;;;11.90;4.30;;;;;;;14.54;68.70;100052.02;113862;1199;22440;-60
2021/10/03 08:40:54;;;;;;;11.20;2.60;;;;;;;14.61;68.54;100051.83;113122;1199;22888;-62
2021/10/03 08:43:22;;;;;;;;;;;;;;;14.68;68.35;100052.02;113350;1199;22419;-61
2021/10/03 08:45:53;;;;;;;10.50;3.10;;;;;;;14.76;67.72;100052.59;113175;1199;22453;-61
2021/10/03 08:48:22;;;;;;;13.20;3.40;;;;;;;14.87;67.47;100049.61;113324;1191;22433;-62
2021/10/03 08:50:53;;;;;;;12.70;4.10;;;;;;;14.95;67.45;100052.66;113869;1198;25294;-62
2021/10/03 08:53:22;;;;;;;15.40;3.60;;;;;;;15.04;67.28;100048.30;113167;1199;22556;-61
2021/10/03 08:55:56;;;;;;;14.80;4.20;;;;;;;15.15;67.31;100045.46;113364;1199;25232;-58
2021/10/03 08:58:26;;;;;;;13.60;3.80;;;;;;;15.22;66.66;100042.32;113297;1192;24554;-60
2021/10/03 09:00:55;;;;;;;15.20;4.00;;;;;;;15.30;66.38;100040.31;113112;1199;23004;-60
2021/10/03 09:03:24;;;;;;;14.90;3.80;;;;;;;15.39;66.51;100037.88;113059;1199;22868;-61
2021/10/03 09:05:54;;;;;;;16.80;4.10;;;;;;;15.47;66.35;100036.89;113261;1199;25062;-61
2021/10/03 09:08:26;;;;;;;16.00;5.00;;;;;;;15.54;65.74;100038.86;113141;1192;25496;-61
2021/10/03 09:10:57;;;;;;;15.60;4.00;;;;;;;15.62;65.97;100040.20;112871;1193;25819;-61
2021/10/03 09:13:46;;;;;;;13.30;4.60;;;;;;;15.71;65.67;100035.40;113954;1198;24145;-61
2021/10/03 09:16:17;;;;;;;15.80;4.90;;;;;;;15.80;65.83;100037.86;113600;1198;25074;-61
2021/10/03 09:18:45;;;;;;;;;;;;;;;15.87;65.72;100034.15;113060;1199;22407;-60
2021/10/03 09:21:38;;;;;;;14.40;4.60;;;;;;;15.96;65.62;100033.16;113030;1199;25103;-59
2021/10/03 09:24:10;;;;;;;14.00;3.90;;;;;;;16.06;65.46;100030.75;112938;1199;24287;-59
2021/10/03 09:26:51;;;;;;;13.90;4.30;;;;;;;16.18;65.15;100031.33;112732;1192;25015;-60
2021/10/03 09:29:25;;;;;;;17.60;6.70;;;;;;;16.29;64.82;100031.21;113154;1192;22620;-60
2021/10/03 09:32:09;;;;;;;21.10;7.50;;;;;;;16.39;64.65;100031.95;113049;1199;22444;-61
2021/10/03 09:34:38;;;;;;;16.70;4.50;;;;;;;16.45;64.32;100025.73;113065;1192;22532;-61
2021/10/03 09:37:24;;;;;;;21.20;6.10;;;;;;;16.57;63.92;100024.48;113974;1198;22408;-66
2021/10/03 09:40:01;;;;;;;16.90;6.70;;;;;;;16.64;63.98;100024.42;112946;1199;22417;-60
2021/10/03 09:42:30;;;;;;;13.70;4.50;;;;;;;16.70;63.87;100022.58;112838;1199;22549;-60
2021/10/03 09:45:13;;;;;;;16.70;6.00;;;;;;;16.74;63.68;100024.28;112849;1193;22618;-59
2021/10/03 09:47:44;;;;;;;18.10;5.20;;;;;;;16.79;63.31;100021.27;113175;1192;22438;-61
2021/10/03 09:50:15;;;;;;;16.10;5.10;;;;;;;16.84;63.41;100019.11;113537;1199;25249;-61
2021/10/03 09:52:44;;;;;;;12.30;4.80;;;;;;;16.89;63.40;100019.48;113396;1199;23961;-61
2021/10/03 09:55:14;;;;;;;14.40;5.20;;;;;;;16.96;62.92;100015.66;113969;1193;24075;-59
2021/10/03 09:57:43;;;;;;;14.10;4.90;;;;;;;17.03;62.83;100013.48;113645;1199;22776;-60
2021/10/03 10:00:15;;;;;;;16.50;4.80;;;;;;;17.05;62.85;100010.38;113050;1199;22499;-60
2021/10/03 10:02:46;;;;;;;14.10;4.50;;;;;;;17.07;62.70;100004.52;112815;1192;23572;-61
2021/10/03 10:05:18;;;;;;;14.80;5.00;;;;;;;17.11;62.66;99997.50;112932;1192;22459;-61
2021/10/03 10:07:47;;;;;;;13.10;5.30;;;;;;;17.18;62.46;100000.80;112864;1198;22446;-60
2021/10/03 10:10:17;;;;;;;14.10;5.10;;;;;;;17.29;62.26;99996.31;113209;1198;24072;-60
2021/10/03 10:12:51;;;;;;;15.20;4.60;;;;;;;17.37;62.28;99995.81;113174;1198;24238;-59
2021/10/03 10:15:24;;;;;;;14.00;4.60;;;;;;;17.41;62.06;99989.39;113085;1198;22456;-60
2021/10/03 10:17:53;;;;;;;13.60;4.20;;;;;;;17.47;61.66;99993.10;113117;1198;22859;-59
2021/10/03 10:20:39;;;;;;;18.40;5.00;;;;;;;17.54;61.64;99988.78;113049;1199;22512;-59
2021/10/03 10:23:10;;;;;;;13.20;4.50;;;;;;;17.59;61.50;99985.63;113006;1199;23945;-59
2021/10/03 10:25:44;;;;;;;13.90;4.90;;;;;;;17.66;61.18;99984.83;112980;1192;23243;-61
2021/10/03 10:28:16;;;;;;;11.50;3.90;;;;;;;17.72;61.06;99984.84;113224;1192;22979;-62
2021/10/03 10:31:10;;;;;;;15.60;4.90;;;;;;;17.73;60.81;99985.77;113099;1193;22715;-61
2021/10/03 10:34:11;;;;;;;12.10;3.90;;;;;;;17.78;61.00;99982.96;113540;1199;24564;-62
2021/10/03 10:36:55;;;;;;;11.70;4.40;;;;;;;17.88;60.98;99982.51;113263;1184;22745;-64
2021/10/03 10:39:29;;;;;;;16.40;5.30;;;;;;;17.96;60.91;99983.41;113183;1199;24120;-61
2021/10/03 10:42:01;;;;;;;14.50;4.70;;;;;;;18.01;60.57;99980.98;112955;1199;25246;-60
2021/10/03 10:44:40;;;;;;;16.60;5.30;;;;;;;18.04;60.71;99980.11;113092;1199;25107;-60
2021/10/03 10:47:21;;;;;;;14.30;4.90;;;;;;;18.08;60.50;99978.10;112860;1192;24298;-64
2021/10/03 10:49:51;;;;;;;14.10;4.90;;;;;;;18.13;60.23;99974.27;112836;1200;22826;-59
2021/10/03 10:52:34;;;;;;;18.70;5.20;;;;;;;18.19;60.34;99972.58;112883;1199;24096;-59
2021/10/03 10:55:24;;;;;;;10.90;4.50;;;;;;;18.23;60.05;99965.52;112968;1199;22536;-60
2021/10/03 10:58:18;;;;;;;14.20;4.30;;;;;;;18.33;59.95;99962.58;113679;1199;22451;-61
2021/10/03 11:01:12;;;;;;;15.70;5.40;;;;;;;18.42;59.85;99960.70;113003;1198;22454;-61
2021/10/03 11:04:04;;;;;;;12.80;4.20;;;;;;;18.48;59.65;99958.64;113174;1192;26339;-61
2021/10/03 11:07:00;;;;;;;12.90;4.50;;;;;;;18.53;59.56;99951.56;113105;1199;22543;-61
2021/10/03 11:09:46;;;;;;;14.70;4.20;;;;;;;18.58;59.46;99948.23;113551;1199;22448;-59
2021/10/03 11:12:14;;;;;;;12.50;3.70;;;;;;;18.63;59.50;99942.88;113106;1192;22447;-60
2021/10/03 11:14:43;;;;;;;13.00;4.60;;;;;;;18.68;59.13;99938.50;113365;1193;22441;-62
2021/10/03 11:17:24;;;;;;;;;;;;;;;;;;;;;
2021/10/03 11:19:54;;;;;;;12.70;5.00;;;;;;;18.83;59.01;99935.53;113582;1193;24091;-62
2021/10/03 11:22:24;;;;;;;14.00;5.00;;;;;;;18.89;58.84;99929.48;113192;1198;26437;-60
2021/10/03 11:24:55;;;;;;;12.60;4.60;;;;;;;18.91;58.54;99927.80;113111;1193;22492;-60
2021/10/03 11:27:30;;;;;;;14.30;4.00;;;;;;;18.96;58.72;99927.11;112923;1199;25257;-59
2021/10/03 11:30:00;;;;;;;16.40;4.70;;;;;;;18.95;58.34;99922.96;112995;1199;23446;-61
2021/10/03 11:32:31;;;;;;;12.00;4.70;;;;;;;19.01;58.44;99925.91;112688;1199;24086;-59
2021/10/03 11:35:05;;;;;;;14.70;4.70;;;;;;;19.10;58.39;99927.34;113018;1199;22448;-60